GMME/RBA METAR and TAF weather

Enter ICAO airport designator
Station Type Date Time Source
GMME METAR 2018/07/21 23:00 UTC NOAA

GMME 212300Z 31002KT 8000 SCT015 21/17 Q1015 NOSIG


Station Type Date Time Source
GMME Decoded METAR 2018/07/21 23:00 UTC NOAA

Rabat-Sale, Morocco (GMME) 34-03N 006-46W 75M
Jul 21, 2018 - 07:00 PM EDT / 2018.07.21 2300 UTC
Wind: from the NW (310 degrees) at 2 MPH (2 KT):0
Visibility: 4 mile(s):0
Sky conditions: partly cloudy
Temperature: 69 F (21 C)
Dew Point: 62 F (17 C)
Relative Humidity: 77%
Pressure (altimeter): 29.97 in. Hg (1015 hPa)
ob: GMME 212300Z 31002KT 8000 SCT015 21/17 Q1015 NOSIG
cycle: 23

Station Type Date Time Source
GMME TAF 2018/07/21 18:24 UTC NOAA

TAF TAF GMME 211700Z 2118/2224 28010KT 7000 NSC
TEMPO 2200/2206 22006KT 3000 BR BKN008 SCT015 BKN070
BECMG 2208/2212 32008KT 5000 NSW NSC
TEMPO 2212/2218 CAVOK


Example: see airport list